Terminal Aerodrome Forecast
Issued by NWS

Home | Current Version | Previous Version | Text Only | Print | Product List | Glossary On
Versions: 1 2 3 4 5 6 7 8 9 10 11 12 13 14 15 16
000
FTAK31 PAJN 251700 AAA
TAFAPG
TAF AMD
PAPG 251800Z 2518/2618 06004KT P6SM SCT020 BKN040
     FM252000 06005KT P6SM SCT050 SCT150
     FM252300 05008KT P6SM SCT050 BKN150
     FM260400 VRB04KT P6SM SCT120
     FM260900 VRB03KT P6SM VCFG SCT010 BKN020
      AMD LTD TO CLD VIS AND WIND 2606/2615=

USA.gov is the U.S. government's official web portal to all federal, state and local government web resources and services.